Terminal Aerodrome Forecast
Issued by NWS

Home | Current Version | Previous Version | Text Only | Print | Product List | Glossary On
Versions: 1 2 3 4 5 6 7 8 9 10 11 12 13 14 15 16 17 18 19 20 21 22 23 24 25
000
FTUS41 KGYX 162322
TAFHIE
TAF
KHIE 162322Z 1700/1724 00000KT P6SM SCT080
     FM170600 00000KT 1/2SM FG SKC
     FM170900 00000KT 1/4SM FG BKN250
     FM171200 00000KT P6SM BKN001
     FM171500 26003KT P6SM SCT100 BKN250
     FM171800 VRB03KT P6SM BKN100 BKN250=

USA.gov is the U.S. government's official web portal to all federal, state and local government web resources and services.